Have a Safe July 4th! 

Flight Track Log - Related Links

Times and Time Zones

All times are in EDT time to prevent confusion due to time zone crossing. See the EJA804 flight status page for this flight to view local times or setup timezone preferences in your user account.

Time Position Orientation Groundspeed Altitude Reporting Facility
EDT Latitude Longitude Course Direction KTS MPH feet Rate Location/Type
Mon 10:08:19 AM 25.8003 -80.2700 80° East 162 186 1,000  Level Miami Center
Mon 10:09:27 AM 25.8125 -80.1964 80° East 237 273 3,500 2,391 Climbing Miami Center
Mon 10:10:27 AM 25.8286 -80.1300 75° East 237 273 6,100 1,700 Climbing Miami Center
Mon 10:11:27 AM 25.9036 -80.1367 355° North 199 229 6,900 550 Climbing Miami Center
Mon 10:12:27 AM 25.9653 -80.1844 325° Northwest 198 228 7,200 1,300 Climbing Miami Center
Mon 10:13:27 AM 25.9864 -80.2661 286° West 213 245 9,500 2,350 Climbing Miami Center
Mon 10:14:27 AM 26.0242 -80.3433 299° West 258 297 11,900 2,650 Climbing Miami Center
Mon 10:15:27 AM 26.0681 -80.4325 299° West 282 325 14,800 2,500 Climbing Miami Center
Mon 10:16:27 AM 26.1100 -80.5100 301° West 300 345 16,900 2,000 Climbing Miami Center
Mon 10:17:27 AM 26.1794 -80.5678 323° Northwest 294 338 18,800 1,750 Climbing Miami Center
Mon 10:18:27 AM 26.2369 -80.6136 324° Northwest 300 345 20,400 2,000 Climbing Miami Center
Mon 10:19:27 AM 26.3206 -80.6833 323° Northwest 316 364 22,800 2,000 Climbing Miami Center
Mon 10:20:27 AM 26.3861 -80.7364 324° Northwest 316 364 24,400 1,600 Climbing Miami Center
Mon 10:21:27 AM 26.4678 -80.7994 325° Northwest 324 373 26,000 1,500 Climbing Miami Center
Mon 10:22:27 AM 26.5456 -80.8578 326° Northwest 336 387 27,400 1,400 Climbing Miami Center
Mon 10:23:27 AM 26.6214 -80.9186 324° Northwest 341 392 28,800 1,400 Climbing Miami Center
Mon 10:24:27 AM 26.6928 -80.9744 325° Northwest 341 392 30,200 1,400 Climbing Miami Center
Mon 10:25:27 AM 26.7683 -81.0375 323° Northwest 341 392 31,600 1,450 Climbing Miami Center
Mon 10:26:27 AM 26.8500 -81.1008 325° Northwest 341 392 33,100 1,250 Climbing Miami Center
Mon 10:27:27 AM 26.9253 -81.1619 324° Northwest 335 386 34,100 1,000 Climbing Miami Center
Mon 10:28:27 AM 27.0031 -81.2208 326° Northwest 335 386 35,100 1,000 Climbing Miami Center
Mon 10:29:27 AM 27.0783 -81.2794 325° Northwest 335 386 36,100 950 Climbing Miami Center
Mon 10:30:27 AM 27.1536 -81.3431 323° Northwest 335 386 37,000 1,050 Climbing Miami Center
Mon 10:31:27 AM 27.2292 -81.4019 325° Northwest 335 386 38,200 1,050 Climbing Miami Center
Mon 10:32:27 AM 27.3044 -81.4611 325° Northwest 330 380 39,100 900 Climbing Miami Center
Mon 10:33:27 AM 27.3756 -81.5200 324° Northwest 325 374 40,000 500 Climbing Miami Center
Mon 10:34:27 AM 27.4428 -81.5742 324° Northwest 325 374 40,100 484 Climbing Miami Center
Mon 10:36:08 AM 27.5642 -81.6731 324° Northwest 338 389 41,300 745 Climbing Jacksonville Center
Mon 10:37:08 AM 27.6397 -81.7308 326° Northwest 333 383 42,100 800 Climbing Jacksonville Center
Mon 10:38:08 AM 27.7175 -81.7908 326° Northwest 327 376 42,900 450 Climbing Jacksonville Center
Mon 10:39:08 AM 27.7931 -81.8464 327° Northwest 327 376 43,000 50 Climbing Jacksonville Center
Mon 10:40:08 AM 27.8686 -81.9114 323° Northwest 332 382 43,000  Level Jacksonville Center
Mon 10:41:08 AM 27.9442 -81.9764 323° Northwest 337 388 43,000  Level Jacksonville Center
Mon 10:42:08 AM 28.0178 -82.0417 322° Northwest 337 388 43,000  Level Jacksonville Center
Mon 10:43:08 AM 28.0975 -82.1114 322° Northwest 350 403 43,000  Level Jacksonville Center
Mon 10:44:08 AM 28.1731 -82.1792 322° Northwest 350 403 43,000  Level Jacksonville Center
Mon 10:45:08 AM 28.2464 -82.2542 318° Northwest 350 403 43,000  Level Jacksonville Center
Mon 10:46:08 AM 28.3197 -82.3289 318° Northwest 355 409 43,000  Level Jacksonville Center
Mon 10:47:08 AM 28.3931 -82.4064 317° Northwest 360 414 43,000  Level Jacksonville Center
Mon 10:48:08 AM 28.4664 -82.4817 318° Northwest 360 414 43,000  Level Jacksonville Center
Mon 10:49:08 AM 28.5419 -82.5569 319° Northwest 360 414 43,000  Level Jacksonville Center
Mon 10:50:08 AM 28.6150 -82.6347 317° Northwest 360 414 43,000  Level Jacksonville Center
Mon 10:51:08 AM 28.6883 -82.7103 318° Northwest 360 414 43,000  Level Jacksonville Center
Mon 10:52:08 AM 28.7614 -82.7861 318° Northwest 360 414 43,000  Level Jacksonville Center
Mon 10:53:08 AM 28.8364 -82.8617 319° Northwest 360 414 43,000  Level Jacksonville Center
Mon 10:54:08 AM 28.9094 -82.9375 318° Northwest 360 414 43,000  Level Jacksonville Center
Mon 10:55:08 AM 28.9847 -83.0161 318° Northwest 360 414 43,000  Level Jacksonville Center
Mon 10:56:08 AM 29.0575 -83.0922 318° Northwest 360 414 43,000  Level Jacksonville Center
Mon 10:57:08 AM 29.1306 -83.1708 317° Northwest 360 414 43,000  Level Jacksonville Center
Mon 10:58:08 AM 29.2075 -83.2494 318° Northwest 365 420 43,000  Level Jacksonville Center
Mon 10:59:08 AM 29.2803 -83.3258 318° Northwest 365 420 43,000  Level Jacksonville Center
Mon 11:00:08 AM 29.3553 -83.4025 318° Northwest 365 420 43,000  Level Jacksonville Center
Mon 11:01:08 AM 29.4281 -83.4814 317° Northwest 365 420 43,000  Level Jacksonville Center
Mon 11:02:08 AM 29.5006 -83.5608 316° Northwest 370 426 43,000  Level Jacksonville Center
Mon 11:03:08 AM 29.5753 -83.6375 318° Northwest 370 426 43,000  Level Jacksonville Center
Mon 11:04:08 AM 29.6500 -83.7169 317° Northwest 365 420 43,000  Level Jacksonville Center
Mon 11:05:08 AM 29.7225 -83.7942 317° Northwest 370 426 43,000  Level Jacksonville Center
Mon 11:06:08 AM 29.7950 -83.8714 317° Northwest 370 426 43,000  Level Jacksonville Center
Mon 11:07:08 AM 29.8467 -83.9653 302° West 356 410 43,000  Level Jacksonville Center
Mon 11:08:08 AM 29.8833 -84.0664 293° West 345 397 43,000  Level Jacksonville Center
Mon 11:09:08 AM 29.9239 -84.1700 294° West 345 397 43,000  Level Jacksonville Center
Mon 11:10:08 AM 29.9606 -84.2711 293° West 345 397 43,000  Level Jacksonville Center
Mon 11:11:08 AM 29.9969 -84.3700 293° West 345 397 43,000  Level Jacksonville Center
Mon 11:12:08 AM 30.0353 -84.4736 293° West 345 397 43,000  Level Jacksonville Center
Mon 11:13:08 AM 30.0758 -84.5753 295° West 351 404 43,000  Level Jacksonville Center
Mon 11:14:08 AM 30.1078 -84.6767 290° West 351 404 43,000  Level Jacksonville Center
Mon 11:15:08 AM 30.1481 -84.7806 294° West 351 404 43,000  Level Jacksonville Center
Mon 11:16:08 AM 30.1864 -84.8822 294° West 351 404 43,000  Level Jacksonville Center
Mon 11:17:08 AM 30.2222 -84.9839 292° West 351 404 43,000  Level Jacksonville Center
Mon 11:18:08 AM 30.2622 -85.0858 294° West 356 410 43,000  Level Jacksonville Center
Mon 11:19:08 AM 30.2981 -85.1878 292° West 356 410 43,000  Level Jacksonville Center
Mon 11:20:08 AM 30.3358 -85.2897 293° West 356 410 43,000  Level Jacksonville Center
Mon 11:21:08 AM 30.3736 -85.3942 293° West 356 410 43,000  Level Jacksonville Center
Mon 11:22:08 AM 30.4089 -85.4986 291° West 356 410 43,000  Level Jacksonville Center
Mon 11:23:08 AM 30.4464 -85.6008 293° West 356 410 43,000  Level Jacksonville Center
Mon 11:24:08 AM 30.4800 -85.6958 292° West 356 410 43,000  Level Jacksonville Center
Mon 11:25:08 AM 30.5153 -85.7981 292° West 356 410 43,000  Level Jacksonville Center
Mon 11:26:08 AM 30.5547 -85.9006 294° West 356 410 43,000  Level Jacksonville Center
Mon 11:27:08 AM 30.5897 -86.0056 291° West 356 410 43,000  Level Jacksonville Center
Mon 11:28:08 AM 30.6289 -86.1106 293° West 356 410 43,000  Level Jacksonville Center
Mon 11:29:08 AM 30.6658 -86.2133 293° West 356 410 43,000  Level Jacksonville Center
Mon 11:30:08 AM 30.6986 -86.3158 290° West 356 410 43,000  Level Jacksonville Center
Mon 11:31:08 AM 30.7353 -86.4211 292° West 356 410 43,000  Level Jacksonville Center
Mon 11:32:08 AM 30.7722 -86.5239 293° West 356 410 43,000  Level Jacksonville Center
Mon 11:33:08 AM 30.8067 -86.6269 291° West 356 410 43,000  Level Jacksonville Center
Mon 11:34:08 AM 30.8219 -86.7461 279° West 342 394 43,000  Level Jacksonville Center
Mon 11:35:08 AM 30.8186 -86.8594 268° West 342 394 43,000  Level Jacksonville Center
Mon 11:36:55 AM 30.8056 -87.0453 265° West 344 396 43,000  Level Houston Center
Mon 11:37:57 AM 30.7992 -87.1697 267° West 343 395 43,000  Level Houston Center
Mon 11:38:59 AM 30.7911 -87.2811 265° West 346 398 43,000  Level Houston Center
Mon 11:40:02 AM 30.7861 -87.3917 267° West 345 397 43,000  Level Houston Center
Mon 11:41:04 AM 30.7806 -87.5022 267° West 344 396 43,000  Level Houston Center
Mon 11:42:06 AM 30.7719 -87.6136 265° West 346 398 43,000  Level Houston Center
Mon 11:43:08 AM 30.7650 -87.7425 266° West 343 395 43,000  Level Houston Center
Mon 11:44:10 AM 30.7581 -87.8525 266° West 343 395 43,000  Level Houston Center
Mon 11:45:12 AM 30.7514 -87.9625 266° West 344 396 43,000  Level Houston Center
Mon 11:46:14 AM 30.7428 -88.0722 265° West 342 394 43,000  Level Houston Center
Mon 11:47:16 AM 30.7364 -88.1811 266° West 341 392 43,000  Level Houston Center
Mon 11:48:19 AM 30.7281 -88.2917 265° West 344 396 43,000  Level Houston Center
Mon 11:49:21 AM 30.6975 -88.4053 253° West 344 396 43,000  Level Houston Center
Mon 11:50:23 AM 30.6633 -88.5103 249° West 346 398 43,000  Level Houston Center
Mon 11:51:25 AM 30.6275 -88.6150 248° West 348 400 43,000  Level Houston Center
Mon 11:52:27 AM 30.5842 -88.7408 248° West 349 402 43,000  Level Houston Center
Mon 11:53:29 AM 30.5489 -88.8458 249° West 350 403 43,000  Level Houston Center
Mon 11:54:31 AM 30.5125 -88.9500 248° West 349 402 43,000  Level Houston Center
Mon 11:55:33 AM 30.4736 -89.0656 249° West 350 403 43,000  Level Houston Center
Mon 11:56:36 AM 30.4372 -89.1697 248° West 348 400 43,000  Level Houston Center
Mon 11:57:38 AM 30.4014 -89.2750 248° West 351 404 43,000  Level Houston Center
Mon 11:58:40 AM 30.3653 -89.3792 248° West 349 402 43,000  Level Houston Center
Mon 11:59:42 AM 30.3286 -89.4844 248° West 352 405 43,000  Level Houston Center
Mon 12:00:44 PM 30.2922 -89.5883 248° West 346 398 43,000  Level Houston Center
Mon 12:01:46 PM 30.2503 -89.7017 247° West 354 407 43,000  Level Houston Center
Mon 12:02:48 PM 30.2072 -89.8256 248° West 356 410 43,000  Level Houston Center
Mon 12:03:50 PM 30.1708 -89.9311 248° West 352 405 43,000  Level Houston Center
Mon 12:04:52 PM 30.1339 -90.0367 248° West 353 406 43,000  Level Houston Center
Mon 12:05:55 PM 30.0969 -90.1411 248° West 352 405 43,000  Level Houston Center
Mon 12:06:57 PM 30.0600 -90.2453 248° West 351 404 43,000  Level Houston Center
Mon 12:07:59 PM 30.0225 -90.3506 248° West 353 406 43,000  Level Houston Center
Mon 12:09:01 PM 29.9847 -90.4550 247° West 353 406 43,000  Level Houston Center
Mon 12:10:03 PM 29.9394 -90.5800 247° West 353 406 43,000  Level Houston Center
Mon 12:11:05 PM 29.9025 -90.6850 248° West 354 407 43,000  Level Houston Center
Mon 12:12:07 PM 29.8639 -90.7889 247° West 352 405 43,000  Level Houston Center
Mon 12:13:09 PM 29.8269 -90.8933 248° West 354 407 43,000  Level Houston Center
Mon 12:14:11 PM 29.7881 -90.9972 247° West 353 406 43,000  Level Houston Center
Mon 12:15:14 PM 29.7436 -91.1219 248° West 352 405 43,000  Level Houston Center
Mon 12:16:16 PM 29.7044 -91.2256 247° West 352 405 43,000  Level Houston Center
Mon 12:17:18 PM 29.6669 -91.3303 248° West 353 406 43,000  Level Houston Center
Mon 12:18:20 PM 29.6292 -91.4342 247° West 353 406 43,000  Level Houston Center
Mon 12:19:22 PM 29.5906 -91.5381 247° West 353 406 43,000  Level Houston Center
Mon 12:20:24 PM 29.5522 -91.6406 247° West 352 405 43,000  Level Houston Center
Mon 12:21:26 PM 29.5128 -91.7481 247° West 350 403 43,000  Level Houston Center
Mon 12:22:28 PM 29.4669 -91.8708 247° West 349 402 43,000  Level Houston Center
Mon 12:23:30 PM 29.4286 -91.9733 247° West 351 404 43,000  Level Houston Center
Mon 12:24:33 PM 29.3897 -92.0756 246° West 348 400 43,000  Level Houston Center
Mon 12:25:35 PM 29.3519 -92.1775 247° West 349 402 43,000  Level Houston Center
Mon 12:26:37 PM 29.3139 -92.2789 247° West 347 399 43,000 -629 Level Houston Center
Mon 12:27:39 PM 29.2758 -92.3786 246° West 343 395 41,700 -1,742 Descending Houston Center
Mon 12:28:41 PM 29.2439 -92.4994 253° West 332 382 39,400 -2,081 Descending Houston Center
Mon 12:29:43 PM 29.2461 -92.6039 271° West 329 379 37,400 -1,935 Descending Houston Center
Mon 12:30:45 PM 29.2478 -92.7072 271° West 325 374 35,400 -1,790 Descending Houston Center
Mon 12:31:47 PM 29.2492 -92.8133 271° West 332 382 33,700 -1,152 Descending Houston Center
Mon 12:32:50 PM 29.2506 -92.9200 271° West 335 386 33,000 -336 Descending Houston Center
Mon 12:33:52 PM 29.2531 -93.0325 271° West 349 402 33,000  Level Houston Center
Mon 12:34:54 PM 29.2547 -93.1681 271° West 354 407 33,000 -532 Level Houston Center
Mon 12:35:56 PM 29.2572 -93.2806 271° West 353 406 31,900 -1,500 Descending Houston Center
Mon 12:36:58 PM 29.2578 -93.3981 270° West 365 420 29,900 -1,935 Descending Houston Center
Mon 12:38:00 PM 29.2594 -93.5206 271° West 381 438 27,900 -1,790 Descending Houston Center
Mon 12:39:02 PM 29.2603 -93.6433 270° West 384 442 26,200 -1,645 Descending Houston Center
Mon 12:40:04 PM 29.2611 -93.7628 270° West 377 434 24,500 -2,016 Descending Houston Center
Mon 12:41:07 PM 29.2633 -93.8767 271° West 350 403 22,000 -2,160 Descending Houston Center
Mon 12:42:09 PM 29.2639 -93.9892 270° West 353 406 20,000 -1,839 Descending Houston Center
Mon 12:43:11 PM 29.2647 -94.1253 270° West 356 410 18,200 -1,683 Descending Houston Center
Mon 12:43:31 PM 29.2661 -94.1667 272° West 351 404 17,700 -1,839 Descending Houston Center
Mon 12:44:13 PM 29.2664 -94.2331 270° West 343 395 16,300 -2,302 Descending Houston Center
Mon 12:44:57 PM 29.2661 -94.3106 270° West 319 367 14,400 -2,226 Descending Houston Center
Mon 12:45:15 PM 29.2669 -94.3317 273° West 317 365 14,000 -1,869 Descending Houston Center
Mon 12:45:58 PM 29.2672 -94.4061 270° West 270 311 12,500 -1,645 Descending Houston Center
Mon 12:46:17 PM 29.2667 -94.4189 267° West 278 320 12,300 -484 Descending Houston Center
Mon 12:47:00 PM 29.2697 -94.4944 273° West 276 318 12,000 -484 Descending Houston Center
Mon 12:47:19 PM 29.2764 -94.5058 304° West 278 320 11,800 -1,970 Descending Houston Center
Mon 12:48:07 PM 29.3139 -94.5825 299° West 282 325 9,800 -2,204 Descending Houston Center
Mon 12:48:57 PM 29.3450 -94.6431 301° West 275 316 8,200 -1,421 Descending Houston Center
Mon 12:49:23 PM 29.3594 -94.6728 299° West 274 315 8,000 -197 Descending Houston Center
Mon 12:49:58 PM 29.3817 -94.7178 300° West 271 312 8,000  Level Houston Center
Mon 12:50:25 PM 29.3964 -94.7469 300° West 269 310 8,000  Level Houston Center
Mon 12:51:06 PM 29.4236 -94.8036 299° West 273 314 8,000  Level Houston Center
Mon 12:51:28 PM 29.4339 -94.8236 301° West 275 316 8,000 -537 Level Houston Center
Mon 12:52:13 PM 29.4656 -94.8894 299° West 278 320 7,400 -871 Descending Houston Center
Mon 12:52:30 PM 29.4719 -94.9006 303° West 277 319 7,100 -1,418 Descending Houston Center
Mon 12:53:08 PM 29.4994 -94.9597 298° West 272 313 6,100 -1,065 Descending Houston Center
Mon 12:53:32 PM 29.5089 -94.9753 305° West 272 313 6,000 -97 Descending Houston Center
Mon 12:54:10 PM 29.5386 -95.0389 298° West 275 316 6,000  Level Houston Center
Mon 12:54:34 PM 29.5464 -95.0522 304° West 275 316 6,000  Level Houston Center
Mon 12:55:12 PM 29.5750 -95.1139 298° West 267 307 6,000  Level Houston Center
Mon 12:55:36 PM 29.5883 -95.1400 300° West 262 302 6,000  Level Houston Center
Mon 12:56:13 PM 29.5839 -95.1872 264° West 229 264 6,000  Level Houston Center
Mon 12:56:38 PM 29.5722 -95.2133 243° Southwest 236 272 6,000  Level Houston Center
Mon 12:57:14 PM 29.5500 -95.2514 236° Southwest 211 243 6,000 -581 Level Houston Center
Mon 12:57:40 PM 29.5361 -95.2661 223° Southwest 210 242 5,400 -1,548 Descending Houston Center
Mon 12:58:16 PM 29.5081 -95.2972 224° Southwest 211 243 4,400 -1,355 Descending Houston Center
Mon 12:58:42 PM 29.4944 -95.3122 224° Southwest 207 238 4,000 -1,254 Descending Houston Center
Mon 12:59:23 PM 29.4664 -95.3456 226° Southwest 187 215 3,000 -952 Descending Houston Center
Mon 12:59:45 PM 29.4597 -95.3592 241° Southwest 210 242 3,000  Level Houston Center
Mon 01:00:18 PM 29.4731 -95.3975 292° West 177 204 3,000  Level Houston Center
Mon 01:00:47 PM 29.4811 -95.4131 301° West 192 221 3,000  Level Houston Center
Mon 01:01:14 PM 29.5103 -95.4122 North 184 212 3,000 -97 Level Houston Center
Mon 01:01:49 PM 29.5283 -95.4056 18° North 181 208 2,900 -537 Descending Houston Center
Mon 01:02:21 PM 29.5514 -95.3808 43° Northeast 167 192 2,400 -968 Descending Houston Center
Mon 01:02:51 PM 29.5694 -95.3617 43° Northeast 176 203 1,900 -968 Descending Houston Center
Mon 01:03:23 PM 29.5878 -95.3406 45° Northeast 165 190 1,400 -774 Descending Houston Center
Mon 01:03:53 PM 29.6019 -95.3267 40° Northeast 167 192 1,100 -689 Descending Houston Center
Mon 01:04:24 PM 29.6164 -95.3106 44° Northeast 135 155 700 -677 Descending Houston Center
Mon 01:04:55 PM 29.6292 -95.2958 45° Northeast 151 174 400 -387 Descending Houston Center
Mon 01:05:57 PM 29.6519 -95.2706 44° Northeast 143 165 100 -290 Descending Houston Center

Login

Don't have an account? Register now (free) for customized features, flight alerts, and more!